sensor_id;sensor_type;location;lat;lon;timestamp;pressure;altitude;pressure_sealevel;temperature;humidity
7168;BME280;3625;51.762;14.320;2023-05-20T00:01:40;101611.63;;;12.71;100.00
7168;BME280;3625;51.762;14.320;2023-05-20T00:04:10;101617.03;;;12.67;100.00
7168;BME280;3625;51.762;14.320;2023-05-20T00:06:40;101605.44;;;12.72;100.00
7168;BME280;3625;51.762;14.320;2023-05-20T00:09:09;101602.81;;;12.71;100.00
7168;BME280;3625;51.762;14.320;2023-05-20T00:11:37;101603.66;;;12.71;100.00
7168;BME280;3625;51.762;14.320;2023-05-20T00:14:08;101603.66;;;12.71;100.00
7168;BME280;3625;51.762;14.320;2023-05-20T00:16:37;101583.41;;;12.66;100.00
7168;BME280;3625;51.762;14.320;2023-05-20T00:19:05;101582.59;;;12.62;100.00
7168;BME280;3625;51.762;14.320;2023-05-20T00:21:34;101594.81;;;12.74;100.00
7168;BME280;3625;51.762;14.320;2023-05-20T00:24:04;101590.41;;;12.71;100.00
7168;BME280;3625;51.762;14.320;2023-05-20T00:26:33;101590.38;;;12.73;100.00
7168;BME280;3625;51.762;14.320;2023-05-20T00:29:01;101576.31;;;12.68;100.00
7168;BME280;3625;51.762;14.320;2023-05-20T00:31:30;101594.69;;;12.81;100.00
7168;BME280;3625;51.762;14.320;2023-05-20T00:33:58;101592.91;;;12.83;100.00
7168;BME280;3625;51.762;14.320;2023-05-20T00:36:27;101597.31;;;12.84;100.00
7168;BME280;3625;51.762;14.320;2023-05-20T00:38:55;101598.22;;;12.83;100.00
7168;BME280;3625;51.762;14.320;2023-05-20T00:41:25;101602.66;;;12.81;100.00
7168;BME280;3625;51.762;14.320;2023-05-20T00:43:54;101603.53;;;12.82;100.00
7168;BME280;3625;51.762;14.320;2023-05-20T00:46:25;101608.94;;;12.77;100.00
7168;BME280;3625;51.762;14.320;2023-05-20T00:48:54;101611.59;;;12.77;100.00
7168;BME280;3625;51.762;14.320;2023-05-20T00:51:23;101609.84;;;12.75;100.00
7168;BME280;3625;51.762;14.320;2023-05-20T00:53:52;101597.56;;;12.65;100.00
7168;BME280;3625;51.762;14.320;2023-05-20T00:56:20;101606.31;;;12.71;100.00
7168;BME280;3625;51.762;14.320;2023-05-20T00:58:51;101602.81;;;12.71;100.00
7168;BME280;3625;51.762;14.320;2023-05-20T01:01:20;101598.38;;;12.71;100.00
7168;BME280;3625;51.762;14.320;2023-05-20T01:03:49;101598.34;;;12.73;100.00
7168;BME280;3625;51.762;14.320;2023-05-20T01:06:18;101600.97;;;12.77;100.00
7168;BME280;3625;51.762;14.320;2023-05-20T01:08:47;101598.34;;;12.73;100.00
7168;BME280;3625;51.762;14.320;2023-05-20T01:11:24;101590.34;;;12.76;100.00
7168;BME280;3625;51.762;14.320;2023-05-20T01:14:04;101585.09;;;12.71;100.00
7168;BME280;3625;51.762;14.320;2023-05-20T01:16:35;101589.56;;;12.71;100.00
7168;BME280;3625;51.762;14.320;2023-05-20T01:19:20;101586.00;;;12.70;100.00
7168;BME280;3625;51.762;14.320;2023-05-20T01:21:53;101590.41;;;12.71;100.00
7168;BME280;3625;51.762;14.320;2023-05-20T01:24:24;101589.56;;;12.71;100.00
7168;BME280;3625;51.762;14.320;2023-05-20T01:26:52;101592.22;;;12.69;100.00
7168;BME280;3625;51.762;14.320;2023-05-20T01:29:24;101590.44;;;12.70;100.00
7168;BME280;3625;51.762;14.320;2023-05-20T01:31:55;101590.44;;;12.70;100.00
7168;BME280;3625;51.762;14.320;2023-05-20T01:34:25;101586.00;;;12.70;100.00
7168;BME280;3625;51.762;14.320;2023-05-20T01:36:55;101586.91;;;12.69;100.00
7168;BME280;3625;51.762;14.320;2023-05-20T01:39:25;101584.25;;;12.69;100.00
7168;BME280;3625;51.762;14.320;2023-05-20T01:41:55;101582.41;;;12.73;100.00
7168;BME280;3625;51.762;14.320;2023-05-20T01:44:24;101581.63;;;12.66;100.00
7168;BME280;3625;51.762;14.320;2023-05-20T01:46:53;101583.38;;;12.69;100.00
7168;BME280;3625;51.762;14.320;2023-05-20T01:49:21;101585.97;;;12.72;100.00
7168;BME280;3625;51.762;14.320;2023-05-20T01:51:50;101586.00;;;12.70;100.00
7168;BME280;3625;51.762;14.320;2023-05-20T01:54:18;101586.00;;;12.70;100.00
7168;BME280;3625;51.762;14.320;2023-05-20T01:56:49;101577.13;;;12.71;100.00
7168;BME280;3625;51.762;14.320;2023-05-20T01:59:17;101571.81;;;12.71;100.00
7168;BME280;3625;51.762;14.320;2023-05-20T02:01:46;101577.13;;;12.71;100.00
7168;BME280;3625;51.762;14.320;2023-05-20T02:04:15;101584.19;;;12.74;100.00
7168;BME280;3625;51.762;14.320;2023-05-20T02:06:46;101580.63;;;12.73;100.00
7168;BME280;3625;51.762;14.320;2023-05-20T02:09:15;101589.47;;;12.75;100.00
7168;BME280;3625;51.762;14.320;2023-05-20T02:11:45;101591.28;;;12.72;100.00
7168;BME280;3625;51.762;14.320;2023-05-20T02:14:15;101583.31;;;12.72;100.00
7168;BME280;3625;51.762;14.320;2023-05-20T02:16:45;101585.97;;;12.72;100.00
7168;BME280;3625;51.762;14.320;2023-05-20T02:19:13;101587.72;;;12.74;100.00
7168;BME280;3625;51.762;14.320;2023-05-20T02:21:50;101577.09;;;12.74;100.00
7168;BME280;3625;51.762;14.320;2023-05-20T02:24:18;101583.25;;;12.78;100.00
7168;BME280;3625;51.762;14.320;2023-05-20T02:26:47;101593.00;;;12.77;100.00
7168;BME280;3625;51.762;14.320;2023-05-20T02:29:18;101585.03;;;12.77;100.00
7168;BME280;3625;51.762;14.320;2023-05-20T02:31:49;101590.34;;;12.76;100.00
7168;BME280;3625;51.762;14.320;2023-05-20T02:34:18;101593.88;;;12.76;100.00
7168;BME280;3625;51.762;14.320;2023-05-20T02:36:46;101591.28;;;12.72;100.00
7168;BME280;3625;51.762;14.320;2023-05-20T02:39:15;101594.81;;;12.72;100.00
7168;BME280;3625;51.762;14.320;2023-05-20T02:41:43;101590.47;;;12.68;100.00
7168;BME280;3625;51.762;14.320;2023-05-20T02:44:12;101597.56;;;12.66;100.00
7168;BME280;3625;51.762;14.320;2023-05-20T02:46:42;101590.47;;;12.67;100.00
7168;BME280;3625;51.762;14.320;2023-05-20T02:49:10;101587.81;;;12.68;100.00
7168;BME280;3625;51.762;14.320;2023-05-20T02:51:39;101583.31;;;12.72;100.00
7168;BME280;3625;51.762;14.320;2023-05-20T02:54:08;101585.94;;;12.73;100.00
7168;BME280;3625;51.762;14.320;2023-05-20T02:56:37;101586.84;;;12.74;100.00
7168;BME280;3625;51.762;14.320;2023-05-20T02:59:05;101585.94;;;12.73;100.00
7168;BME280;3625;51.762;14.320;2023-05-20T03:01:34;101587.69;;;12.76;100.00
7168;BME280;3625;51.762;14.320;2023-05-20T03:04:04;101557.81;;;12.60;100.00
7168;BME280;3625;51.762;14.320;2023-05-20T03:06:33;101579.81;;;12.70;100.00
7168;BME280;3625;51.762;14.320;2023-05-20T03:09:02;101587.81;;;12.68;100.00
7168;BME280;3625;51.762;14.320;2023-05-20T03:11:30;101582.59;;;12.62;100.00
7168;BME280;3625;51.762;14.320;2023-05-20T03:13:59;101589.63;;;12.63;100.00
7168;BME280;3625;51.762;14.320;2023-05-20T03:16:27;101585.22;;;12.62;100.00
7168;BME280;3625;51.762;14.320;2023-05-20T03:18:57;101587.00;;;12.62;100.00
7168;BME280;3625;51.762;14.320;2023-05-20T03:21:27;101585.28;;;12.56;100.00
7168;BME280;3625;51.762;14.320;2023-05-20T03:23:55;101587.03;;;12.57;100.00
7168;BME280;3625;51.762;14.320;2023-05-20T03:26:24;101567.69;;;12.49;100.00
7168;BME280;3625;51.762;14.320;2023-05-20T03:28:52;101595.78;;;12.65;100.00
7168;BME280;3625;51.762;14.320;2023-05-20T03:31:21;101593.09;;;12.68;100.00
7168;BME280;3625;51.762;14.320;2023-05-20T03:33:50;101594.00;;;12.67;100.00
7168;BME280;3625;51.762;14.320;2023-05-20T03:36:18;101594.03;;;12.66;100.00
7168;BME280;3625;51.762;14.320;2023-05-20T03:38:49;101594.03;;;12.66;100.00
7168;BME280;3625;51.762;14.320;2023-05-20T03:41:17;101597.56;;;12.66;100.00
7168;BME280;3625;51.762;14.320;2023-05-20T03:43:46;101595.88;;;12.61;100.00
7168;BME280;3625;51.762;14.320;2023-05-20T03:46:14;101589.72;;;12.56;100.00
7168;BME280;3625;51.762;14.320;2023-05-20T03:48:43;101589.56;;;12.68;100.00
7168;BME280;3625;51.762;14.320;2023-05-20T03:51:12;101590.38;;;12.73;100.00
7168;BME280;3625;51.762;14.320;2023-05-20T03:53:40;101586.06;;;12.64;100.00
7168;BME280;3625;51.762;14.320;2023-05-20T03:56:11;101586.91;;;12.68;100.00
7168;BME280;3625;51.762;14.320;2023-05-20T03:58:41;101570.13;;;12.64;100.00
7168;BME280;3625;51.762;14.320;2023-05-20T04:01:10;101584.06;;;12.83;100.00
7168;BME280;3625;51.762;14.320;2023-05-20T04:03:40;101572.66;;;12.75;100.00
7168;BME280;3625;51.762;14.320;2023-05-20T04:06:10;101577.97;;;12.76;100.00
7168;BME280;3625;51.762;14.320;2023-05-20T04:08:40;101578.06;;;12.67;100.00
7168;BME280;3625;51.762;14.320;2023-05-20T04:11:10;101573.56;;;12.72;100.00
7168;BME280;3625;51.762;14.320;2023-05-20T04:13:39;101570.97;;;12.71;100.00
7168;BME280;3625;51.762;14.320;2023-05-20T04:16:07;101578.06;;;12.70;100.00
7168;BME280;3625;51.762;14.320;2023-05-20T04:18:36;101570.97;;;12.71;100.00
7168;BME280;3625;51.762;14.320;2023-05-20T04:21:06;101571.88;;;12.67;100.00
7168;BME280;3625;51.762;14.320;2023-05-20T04:23:35;101571.03;;;12.65;100.00
7168;BME280;3625;51.762;14.320;2023-05-20T04:26:03;101570.09;;;12.67;100.00
7168;BME280;3625;51.762;14.320;2023-05-20T04:28:33;101570.81;;;12.80;100.00
7168;BME280;3625;51.762;14.320;2023-05-20T04:31:04;101564.59;;;12.82;100.00
7168;BME280;3625;51.762;14.320;2023-05-20T04:33:35;101562.81;;;12.81;100.00
7168;BME280;3625;51.762;14.320;2023-05-20T04:36:08;101532.97;;;12.63;100.00
7168;BME280;3625;51.762;14.320;2023-05-20T04:38:39;101565.44;;;12.86;100.00
7168;BME280;3625;51.762;14.320;2023-05-20T04:41:08;101558.19;;;12.97;100.00
7168;BME280;3625;51.762;14.320;2023-05-20T04:43:39;101564.22;;;13.07;100.00
7168;BME280;3625;51.762;14.320;2023-05-20T04:46:07;101564.13;;;13.16;100.00
7168;BME280;3625;51.762;14.320;2023-05-20T04:48:36;101568.78;;;12.99;100.00
7168;BME280;3625;51.762;14.320;2023-05-20T04:51:05;101570.31;;;13.16;100.00
7168;BME280;3625;51.762;14.320;2023-05-20T04:53:34;101577.22;;;13.30;100.00
7168;BME280;3625;51.762;14.320;2023-05-20T04:56:04;101577.41;;;13.16;100.00
7168;BME280;3625;51.762;14.320;2023-05-20T04:58:32;101580.91;;;13.21;100.00
7168;BME280;3625;51.762;14.320;2023-05-20T05:01:05;101581.81;;;13.20;100.00
7168;BME280;3625;51.762;14.320;2023-05-20T05:03:33;101579.06;;;13.25;100.00
7168;BME280;3625;51.762;14.320;2023-05-20T05:06:03;101579.53;;;13.51;100.00
7168;BME280;3625;51.762;14.320;2023-05-20T05:08:32;101569.63;;;13.59;100.00
7168;BME280;3625;51.762;14.320;2023-05-20T05:11:00;101564.53;;;13.47;100.00
7168;BME280;3625;51.762;14.320;2023-05-20T05:13:29;101544.28;;;13.40;100.00
7168;BME280;3625;51.762;14.320;2023-05-20T05:15:59;101569.56;;;13.64;100.00
7168;BME280;3625;51.762;14.320;2023-05-20T05:18:31;101562.31;;;13.73;100.00
7168;BME280;3625;51.762;14.320;2023-05-20T05:21:01;101574.31;;;13.95;100.00
7168;BME280;3625;51.762;14.320;2023-05-20T05:23:30;101571.41;;;13.60;100.00
7168;BME280;3625;51.762;14.320;2023-05-20T05:25:59;101570.09;;;13.84;100.00
7168;BME280;3625;51.762;14.320;2023-05-20T05:28:27;101571.69;;;13.94;100.00
7168;BME280;3625;51.762;14.320;2023-05-20T05:30:57;101584.25;;;13.86;100.00
7168;BME280;3625;51.762;14.320;2023-05-20T05:33:25;101564.72;;;13.87;100.00
7168;BME280;3625;51.762;14.320;2023-05-20T05:35:56;101551.53;;;13.82;100.00
7168;BME280;3625;51.762;14.320;2023-05-20T05:38:25;101568.06;;;14.00;100.00
7168;BME280;3625;51.762;14.320;2023-05-20T05:40:54;101563.47;;;14.08;100.00
7168;BME280;3625;51.762;14.320;2023-05-20T05:43:22;101585.69;;;14.05;100.00
7168;BME280;3625;51.762;14.320;2023-05-20T05:45:52;101547.88;;;14.32;100.00
7168;BME280;3625;51.762;14.320;2023-05-20T05:48:21;101590.25;;;14.45;100.00
7168;BME280;3625;51.762;14.320;2023-05-20T05:50:50;101563.66;;;13.97;100.00
7168;BME280;3625;51.762;14.320;2023-05-20T05:53:21;101589.91;;;14.17;100.00
7168;BME280;3625;51.762;14.320;2023-05-20T05:55:51;101562.75;;;13.98;100.00
7168;BME280;3625;51.762;14.320;2023-05-20T05:58:19;101589.50;;;14.36;100.00
7168;BME280;3625;51.762;14.320;2023-05-20T06:00:51;101589.78;;;14.69;100.00
7168;BME280;3625;51.762;14.320;2023-05-20T06:03:21;101587.44;;;14.95;100.00
7168;BME280;3625;51.762;14.320;2023-05-20T06:05:50;101593.41;;;15.05;100.00
7168;BME280;3625;51.762;14.320;2023-05-20T06:08:21;101567.66;;;14.65;100.00
7168;BME280;3625;51.762;14.320;2023-05-20T06:10:49;101583.38;;;14.78;100.00
7168;BME280;3625;51.762;14.320;2023-05-20T06:13:19;101588.69;;;15.18;100.00
7168;BME280;3625;51.762;14.320;2023-05-20T06:15:49;101559.31;;;15.21;100.00
7168;BME280;3625;51.762;14.320;2023-05-20T06:18:18;101598.78;;;15.42;100.00
7168;BME280;3625;51.762;14.320;2023-05-20T06:20:54;101594.97;;;15.52;100.00
7168;BME280;3625;51.762;14.320;2023-05-20T06:23:25;101588.03;;;15.45;100.00
7168;BME280;3625;51.762;14.320;2023-05-20T06:26:00;101589.75;;;15.10;100.00
7168;BME280;3625;51.762;14.320;2023-05-20T06:28:30;101574.59;;;15.13;100.00
7168;BME280;3625;51.762;14.320;2023-05-20T06:30:58;101593.94;;;15.59;100.00
7168;BME280;3625;51.762;14.320;2023-05-20T06:33:32;101566.25;;;15.65;100.00
7168;BME280;3625;51.762;14.320;2023-05-20T06:36:06;101584.69;;;16.08;100.00
7168;BME280;3625;51.762;14.320;2023-05-20T06:38:36;101588.28;;;16.07;96.00
7168;BME280;3625;51.762;14.320;2023-05-20T06:41:05;101588.38;;;16.02;95.98
7168;BME280;3625;51.762;14.320;2023-05-20T06:43:33;101594.56;;;15.70;98.29
7168;BME280;3625;51.762;14.320;2023-05-20T06:46:28;101582.31;;;15.23;100.00
7168;BME280;3625;51.762;14.320;2023-05-20T06:49:03;101587.94;;;15.13;100.00
7168;BME280;3625;51.762;14.320;2023-05-20T06:51:31;101575.94;;;14.93;100.00
7168;BME280;3625;51.762;14.320;2023-05-20T06:54:02;101569.19;;;15.16;100.00
7168;BME280;3625;51.762;14.320;2023-05-20T06:56:30;101571.16;;;15.81;100.00
7168;BME280;3625;51.762;14.320;2023-05-20T06:58:59;101568.41;;;15.83;98.49
7168;BME280;3625;51.762;14.320;2023-05-20T07:01:29;101569.72;;;16.01;97.53
7168;BME280;3625;51.762;14.320;2023-05-20T07:03:57;101575.41;;;15.89;97.65
7168;BME280;3625;51.762;14.320;2023-05-20T07:06:26;101576.94;;;16.30;98.09
7168;BME280;3625;51.762;14.320;2023-05-20T07:08:57;101577.72;;;16.66;96.40
7168;BME280;3625;51.762;14.320;2023-05-20T07:11:28;101574.97;;;16.69;95.71
7168;BME280;3625;51.762;14.320;2023-05-20T07:13:57;101574.72;;;16.45;93.97
7168;BME280;3625;51.762;14.320;2023-05-20T07:16:27;101563.84;;;16.20;92.50
7168;BME280;3625;51.762;14.320;2023-05-20T07:18:56;101562.75;;;16.28;94.43
7168;BME280;3625;51.762;14.320;2023-05-20T07:21:25;101571.75;;;16.56;94.18
7168;BME280;3625;51.762;14.320;2023-05-20T07:24:06;101566.53;;;16.82;92.52
7168;BME280;3625;51.762;14.320;2023-05-20T07:26:37;101563.66;;;16.88;91.50
7168;BME280;3625;51.762;14.320;2023-05-20T07:29:06;101564.53;;;16.89;89.71
7168;BME280;3625;51.762;14.320;2023-05-20T07:31:37;101547.31;;;16.70;89.11
7168;BME280;3625;51.762;14.320;2023-05-20T07:34:06;101561.84;;;15.96;93.14
7168;BME280;3625;51.762;14.320;2023-05-20T07:36:34;101550.59;;;15.48;98.03
7168;BME280;3625;51.762;14.320;2023-05-20T07:39:05;101542.75;;;15.42;98.67
7168;BME280;3625;51.762;14.320;2023-05-20T07:41:43;101563.34;;;14.98;100.00
7168;BME280;3625;51.762;14.320;2023-05-20T07:44:13;101569.19;;;15.53;99.95
7168;BME280;3625;51.762;14.320;2023-05-20T07:46:48;101540.47;;;15.64;96.77
7168;BME280;3625;51.762;14.320;2023-05-20T07:49:19;101559.47;;;15.85;95.98
7168;BME280;3625;51.762;14.320;2023-05-20T07:51:47;101564.09;;;15.79;96.02
7168;BME280;3625;51.762;14.320;2023-05-20T07:54:16;101527.16;;;16.27;95.29
7168;BME280;3625;51.762;14.320;2023-05-20T07:56:48;101544.63;;;16.39;90.49
7168;BME280;3625;51.762;14.320;2023-05-20T07:59:18;101542.03;;;16.36;90.84
7168;BME280;3625;51.762;14.320;2023-05-20T08:01:48;101564.66;;;16.55;90.77
7168;BME280;3625;51.762;14.320;2023-05-20T08:04:19;101573.47;;;16.58;90.22
7168;BME280;3625;51.762;14.320;2023-05-20T08:06:48;101565.22;;;16.35;91.57
7168;BME280;3625;51.762;14.320;2023-05-20T08:09:27;101567.34;;;16.86;87.31
7168;BME280;3625;51.762;14.320;2023-05-20T08:11:57;101570.72;;;17.20;84.56
7168;BME280;3625;51.762;14.320;2023-05-20T08:14:26;101560.13;;;16.88;86.14
7168;BME280;3625;51.762;14.320;2023-05-20T08:16:55;101556.53;;;16.27;89.63
7168;BME280;3625;51.762;14.320;2023-05-20T08:19:23;101562.19;;;16.16;90.43
7168;BME280;3625;51.762;14.320;2023-05-20T08:21:52;101555.94;;;15.83;93.15
7168;BME280;3625;51.762;14.320;2023-05-20T08:24:20;101552.34;;;15.86;93.28
7168;BME280;3625;51.762;14.320;2023-05-20T08:26:49;101558.03;;;16.06;93.16
7168;BME280;3625;51.762;14.320;2023-05-20T08:29:20;101551.56;;;15.82;95.86
7168;BME280;3625;51.762;14.320;2023-05-20T08:31:49;101547.88;;;16.50;92.34
7168;BME280;3625;51.762;14.320;2023-05-20T08:34:19;101548.25;;;16.05;92.61
7168;BME280;3625;51.762;14.320;2023-05-20T08:36:47;101543.50;;;16.47;90.73
7168;BME280;3625;51.762;14.320;2023-05-20T08:39:16;101538.09;;;17.35;88.14
7168;BME280;3625;51.762;14.320;2023-05-20T08:41:48;101538.03;;;17.65;83.20
7168;BME280;3625;51.762;14.320;2023-05-20T08:44:20;101539.72;;;17.67;81.51
7168;BME280;3625;51.762;14.320;2023-05-20T08:46:51;101546.38;;;17.28;83.65
7168;BME280;3625;51.762;14.320;2023-05-20T08:49:25;101549.47;;;17.42;82.95
7168;BME280;3625;51.762;14.320;2023-05-20T08:51:54;101534.16;;;17.21;84.22
7168;BME280;3625;51.762;14.320;2023-05-20T08:54:25;101549.44;;;17.96;82.53
7168;BME280;3625;51.762;14.320;2023-05-20T08:56:58;101547.38;;;16.96;84.59
7168;BME280;3625;51.762;14.320;2023-05-20T08:59:29;101546.19;;;17.60;83.64
7168;BME280;3625;51.762;14.320;2023-05-20T09:01:58;101538.13;;;18.13;81.33
7168;BME280;3625;51.762;14.320;2023-05-20T09:04:26;101549.16;;;18.52;78.01
7168;BME280;3625;51.762;14.320;2023-05-20T09:06:55;101559.63;;;17.59;79.72
7168;BME280;3625;51.762;14.320;2023-05-20T09:09:23;101558.72;;;18.11;81.37
7168;BME280;3625;51.762;14.320;2023-05-20T09:11:52;101548.13;;;17.29;83.11
7168;BME280;3625;51.762;14.320;2023-05-20T09:14:21;101546.34;;;16.72;85.12
7168;BME280;3625;51.762;14.320;2023-05-20T09:16:54;101498.97;;;17.05;83.98
7168;BME280;3625;51.762;14.320;2023-05-20T09:19:23;101550.69;;;17.86;79.91
7168;BME280;3625;51.762;14.320;2023-05-20T09:21:53;101555.38;;;18.53;78.11
7168;BME280;3625;51.762;14.320;2023-05-20T09:24:23;101553.84;;;18.94;72.96
7168;BME280;3625;51.762;14.320;2023-05-20T09:26:53;101555.28;;;18.56;72.51
7168;BME280;3625;51.762;14.320;2023-05-20T09:29:22;101555.41;;;18.99;72.14
7168;BME280;3625;51.762;14.320;2023-05-20T09:31:51;101532.38;;;19.37;68.30
7168;BME280;3625;51.762;14.320;2023-05-20T09:34:22;101554.97;;;19.75;68.15
7168;BME280;3625;51.762;14.320;2023-05-20T09:36:50;101551.03;;;19.84;66.68
7168;BME280;3625;51.762;14.320;2023-05-20T09:39:24;101542.50;;;20.35;63.41
7168;BME280;3625;51.762;14.320;2023-05-20T09:42:04;101534.84;;;20.84;63.39
7168;BME280;3625;51.762;14.320;2023-05-20T09:44:34;101547.25;;;21.42;60.46
7168;BME280;3625;51.762;14.320;2023-05-20T09:47:05;101556.88;;;22.00;58.50
7168;BME280;3625;51.762;14.320;2023-05-20T09:49:38;101565.41;;;21.91;53.47
7168;BME280;3625;51.762;14.320;2023-05-20T09:52:08;101555.63;;;20.99;55.92
7168;BME280;3625;51.762;14.320;2023-05-20T09:54:39;101551.75;;;21.42;57.52
7168;BME280;3625;51.762;14.320;2023-05-20T09:57:08;101530.94;;;21.63;55.62
7168;BME280;3625;51.762;14.320;2023-05-20T09:59:37;101553.38;;;21.80;52.61
7168;BME280;3625;51.762;14.320;2023-05-20T10:02:08;101552.03;;;21.19;53.75
7168;BME280;3625;51.762;14.320;2023-05-20T10:04:44;101551.44;;;21.48;54.17
7168;BME280;3625;51.762;14.320;2023-05-20T10:10:35;101533.69;;;19.71;59.84
7168;BME280;3625;51.762;14.320;2023-05-20T10:13:19;101526.78;;;20.65;58.49
7168;BME280;3625;51.762;14.320;2023-05-20T10:16:04;101533.38;;;21.33;54.92
7168;BME280;3625;51.762;14.320;2023-05-20T10:18:50;101499.31;;;19.99;59.43
7168;BME280;3625;51.762;14.320;2023-05-20T10:21:24;101525.28;;;19.98;61.43
7168;BME280;3625;51.762;14.320;2023-05-20T10:23:52;101479.84;;;19.74;61.16
7168;BME280;3625;51.762;14.320;2023-05-20T10:26:21;101521.16;;;19.71;62.63
7168;BME280;3625;51.762;14.320;2023-05-20T10:28:49;101504.13;;;19.07;66.81
7168;BME280;3625;51.762;14.320;2023-05-20T10:31:21;101515.00;;;19.26;67.12
7168;BME280;3625;51.762;14.320;2023-05-20T10:33:52;101520.41;;;19.88;63.74
7168;BME280;3625;51.762;14.320;2023-05-20T10:36:25;101510.09;;;20.94;59.36
7168;BME280;3625;51.762;14.320;2023-05-20T10:38:56;101520.88;;;21.83;55.32
7168;BME280;3625;51.762;14.320;2023-05-20T10:41:27;101512.22;;;21.06;56.30
7168;BME280;3625;51.762;14.320;2023-05-20T10:44:00;101513.03;;;20.71;56.17
7168;BME280;3625;51.762;14.320;2023-05-20T10:46:30;101515.44;;;19.79;62.11
7168;BME280;3625;51.762;14.320;2023-05-20T10:49:19;101475.84;;;19.42;63.60
7168;BME280;3625;51.762;14.320;2023-05-20T10:51:54;101490.19;;;19.83;63.92
7168;BME280;3625;51.762;14.320;2023-05-20T10:54:23;101496.00;;;20.89;60.57
7168;BME280;3625;51.762;14.320;2023-05-20T10:56:53;101433.09;;;20.17;59.09
7168;BME280;3625;51.762;14.320;2023-05-20T10:59:22;101488.19;;;20.27;62.25
7168;BME280;3625;51.762;14.320;2023-05-20T11:01:50;101489.97;;;19.25;66.72
7168;BME280;3625;51.762;14.320;2023-05-20T11:04:20;101482.78;;;19.47;67.02
7168;BME280;3625;51.762;14.320;2023-05-20T11:06:51;101487.47;;;19.20;67.29
7168;BME280;3625;51.762;14.320;2023-05-20T11:09:23;101462.81;;;19.33;67.30
7168;BME280;3625;51.762;14.320;2023-05-20T11:11:54;101490.09;;;19.00;67.22
7168;BME280;3625;51.762;14.320;2023-05-20T11:14:22;101477.75;;;19.38;66.62
7168;BME280;3625;51.762;14.320;2023-05-20T11:16:51;101463.75;;;19.53;65.79
7168;BME280;3625;51.762;14.320;2023-05-20T11:19:20;101478.97;;;19.31;67.56
7168;BME280;3625;51.762;14.320;2023-05-20T11:21:49;101462.88;;;19.31;68.55
7168;BME280;3625;51.762;14.320;2023-05-20T11:24:25;101462.16;;;20.09;66.60
7168;BME280;3625;51.762;14.320;2023-05-20T11:26:55;101434.63;;;20.04;63.75
7168;BME280;3625;51.762;14.320;2023-05-20T11:29:26;101446.66;;;20.34;62.46
7168;BME280;3625;51.762;14.320;2023-05-20T11:31:55;101420.72;;;19.13;66.56
7168;BME280;3625;51.762;14.320;2023-05-20T11:34:24;101460.84;;;18.72;69.40
7168;BME280;3625;51.762;14.320;2023-05-20T11:36:58;101455.25;;;18.08;75.96
7168;BME280;3625;51.762;14.320;2023-05-20T11:39:34;101451.88;;;18.03;74.97
7168;BME280;3625;51.762;14.320;2023-05-20T11:42:03;101395.41;;;17.37;79.06
7168;BME280;3625;51.762;14.320;2023-05-20T11:44:34;101423.06;;;17.62;79.69
7168;BME280;3625;51.762;14.320;2023-05-20T11:47:03;101431.97;;;18.10;79.74
7168;BME280;3625;51.762;14.320;2023-05-20T11:49:39;101432.06;;;18.31;75.33
7168;BME280;3625;51.762;14.320;2023-05-20T11:52:08;101427.47;;;18.58;74.93
7168;BME280;3625;51.762;14.320;2023-05-20T11:54:39;101413.81;;;18.64;75.15
7168;BME280;3625;51.762;14.320;2023-05-20T11:57:10;101347.84;;;17.93;76.70
7168;BME280;3625;51.762;14.320;2023-05-20T11:59:39;101381.53;;;18.22;77.80
7168;BME280;3625;51.762;14.320;2023-05-20T12:02:07;101237.19;;;17.70;76.33
7168;BME280;3625;51.762;14.320;2023-05-20T12:04:36;101389.56;;;18.22;75.23
7168;BME280;3625;51.762;14.320;2023-05-20T12:07:05;101409.25;;;18.21;77.04
7168;BME280;3625;51.762;14.320;2023-05-20T12:09:35;101412.72;;;18.46;75.77
7168;BME280;3625;51.762;14.320;2023-05-20T12:12:06;101366.28;;;18.00;76.10
7168;BME280;3625;51.762;14.320;2023-05-20T12:14:34;101414.16;;;18.55;75.33
7168;BME280;3625;51.762;14.320;2023-05-20T12:17:03;101410.72;;;18.51;74.35
7168;BME280;3625;51.762;14.320;2023-05-20T12:19:32;101382.91;;;18.32;75.13
7168;BME280;3625;51.762;14.320;2023-05-20T12:22:03;101374.75;;;18.35;74.50
7168;BME280;3625;51.762;14.320;2023-05-20T12:24:31;101402.44;;;18.59;73.74
7168;BME280;3625;51.762;14.320;2023-05-20T12:27:00;101397.50;;;18.46;74.29
7168;BME280;3625;51.762;14.320;2023-05-20T12:29:31;101389.34;;;18.50;74.04
7168;BME280;3625;51.762;14.320;2023-05-20T12:32:00;101397.53;;;18.68;73.75
7168;BME280;3625;51.762;14.320;2023-05-20T12:34:28;101355.19;;;18.55;73.36
7168;BME280;3625;51.762;14.320;2023-05-20T12:36:57;101362.78;;;18.67;73.63
7168;BME280;3625;51.762;14.320;2023-05-20T12:39:25;101399.28;;;18.91;71.67
7168;BME280;3625;51.762;14.320;2023-05-20T12:41:54;101352.94;;;18.88;71.94
7168;BME280;3625;51.762;14.320;2023-05-20T12:44:22;101363.44;;;19.14;70.49
7168;BME280;3625;51.762;14.320;2023-05-20T12:46:55;101373.06;;;19.19;70.05
7168;BME280;3625;51.762;14.320;2023-05-20T12:49:25;101370.97;;;19.26;70.59
7168;BME280;3625;51.762;14.320;2023-05-20T12:51:54;101296.28;;;18.53;71.17
7168;BME280;3625;51.762;14.320;2023-05-20T12:54:22;101357.78;;;19.20;72.40
7168;BME280;3625;51.762;14.320;2023-05-20T12:56:54;101336.06;;;19.06;70.61
7168;BME280;3625;51.762;14.320;2023-05-20T12:59:22;101323.81;;;19.00;68.92
7168;BME280;3625;51.762;14.320;2023-05-20T13:01:52;101348.81;;;19.41;69.13
7168;BME280;3625;51.762;14.320;2023-05-20T13:04:21;101320.31;;;19.18;67.18
7168;BME280;3625;51.762;14.320;2023-05-20T13:06:50;101339.94;;;19.39;68.46
7168;BME280;3625;51.762;14.320;2023-05-20T13:09:19;101351.25;;;19.47;67.08
7168;BME280;3625;51.762;14.320;2023-05-20T13:11:47;101349.31;;;19.51;67.91
7168;BME280;3625;51.762;14.320;2023-05-20T13:14:16;101360.91;;;19.72;67.39